ADDS METAR Data INFO
IDs: Format: Raw Decoded Include TAF

Data at: 0217 UTC 18 Jan 2018

PAKN 180154Z 35010KT 1 1/4SM -SN BR FEW006 OVC021 M01/M01 A2928 RMK AO2 SLP916 P0002 T10111011
PAKN 180054Z 35012KT 1SM -SN BR FEW006 OVC021 M01/M01 A2927 RMK AO2 SLP911 P0003 T10111011 RVRNO
PAKN 180029Z 35010KT 2SM -SN BR FEW006 OVC023 M01/M01 A2926 RMK AO2 P0002 T10111011
PAKN 172354Z 35011KT 2 1/2SM -SN BR OVC027 M01/M01 A2926 RMK AO2 FZRAE41SNB03 SLP909 P0002 60009 I1000 I6001 T10111011 11011 21011 53003
PAKN 172347Z 35012KT 4SM -SN BR OVC027 M01/M01 A2926 RMK AO2 FZRAE41SNB03 P0001 I1000 T10111011
PAKN 172318Z 35014KT 5SM -FZRASN BR OVC029 M01/M01 A2925 RMK AO2 SNB03 P0000 I1000 T10111011
PAKN 172254Z 36012G18KT 7SM -FZRA FEW008 OVC035 M01/M01 A2925 RMK AO2 UPE2155FZRAB2155 SLP906 P0003 I1000 T10111011
PAKN 172252Z 36012G18KT 6SM -FZRA BR FEW008 OVC035 M01/M01 A2925 RMK AO2 UPE2155FZRAB2155 P0003 I1000
PAKN 172201Z 35013KT 5SM -FZRA BR OVC032 M01/M02 A2925 RMK AO2 UPE2155FZRAB2155 P0001 I1000 T10111017
PAKN 172154Z 36011G20KT 6SM UP BR OVC032 M01/M02 A2925 RMK AO2 UPB26E35B53SNE26B35E53 SLP906 P0002 T10111017
PAKN 172118Z 36013KT 6SM -SN BR OVC033 M01/M02 A2925 RMK AO2 P0001 T10111017
PAKN 172054Z 36011KT 3SM -SN BR OVC029 M01/M02 A2925 RMK AO2 FZRAE40SNB40 SLP904 P0002 60002 I1000 I3001 T10111017 50014
PAKN 172051Z 36012KT 3SM -SN BR OVC029 M01/M02 A2925 RMK AO2 FZRAE40SNB40 P0002 I1000
PAKN 172040Z 01010KT 7SM -SN OVC031 M01/M02 A2924 RMK AO2 FZRAE40SNB40 P0001 I1000 T10111017
PAKN 171954Z 36014KT 10SM FZRA OVC038 M01/M02 A2923 RMK AO2 UPE39FZRAB40 SLP898 P0000 I1001 T10111017
PAKN 171946Z 36014KT 10SM FZRA FEW029 BKN038 OVC048 M01/M02 A2922 RMK AO2 UPE39FZRAB40 P0000 I1001 T10111017
PAKN 171854Z 36014KT 10SM UP OVC048 M01/M02 A2921 RMK AO2 SLP891 P0000 T10111017
PAKN 171754Z 35012KT 10SM UP OVC065 M01/M02 A2918 RMK AO2 UPE12B34 SLP883 P0000 60006 I6002 T10111022 11006 21011 53009
PAKN 171654Z 35013KT 9SM UP OVC035 M01/M02 A2917 RMK AO2 UPB08FZRAE08SNB37E50 SLP879 P0002 I1000 T10111017
PAKN 171614Z AUTO 35013KT 10SM UP OVC040 M01/M02 A2916 RMK AO2 UPB08FZRAE08 P0000 I1000 T10111017 TSNO
PAKN 171554Z AUTO 35013KT 10SM -FZRA OVC041 M01/M02 A2916 RMK AO2 UPB16E28FZRAE16B28 SLP876 P0001 I1001 T10111017 TSNO
PAKN 171534Z AUTO 36013KT 10SM -FZRA OVC043 M01/M02 A2916 RMK AO2 UPB16E28FZRAE16B28 P0001 I1000 T10111017 TSNO
PAKN 171522Z AUTO 36012G18KT 10SM UP OVC045 M01/M02 A2916 RMK AO2 UPB16FZRAE16 P0001 I1000 T10111017 TSNO
PAKN 171454Z AUTO 01012KT 10SM -FZRA OVC040 M01/M02 A2916 RMK AO2 UPE44FZRAB44 SLP874 P0001 60003 I1001 I3001 T10111017 52003 TSNO
PAKN 171450Z AUTO 36014G19KT 10SM -FZRA OVC040 M01/M02 A2915 RMK AO2 UPE44FZRAB44 P0001 I1001 TSNO
PAKN 171354Z AUTO 35011G20KT 10SM UP OVC043 M01/M02 A2915 RMK AO2 UPB03SNE03 SLP871 P0000 I1000 T10111017 TSNO
PAKN 171254Z 36012KT 9SM -SN OVC037 M01/M02 A2915 RMK AO2 SLP870 P0002 T10061017
PAKN 171154Z 35015G20KT 7SM -SN OVC032 M01/M02 A2914 RMK AO2 SLP868 P0002 60003 70009 T10061017 11006 21011 53006
PAKN 171054Z 36014KT 9SM -SN OVC036 M01/M02 A2914 RMK AO2 SLP867 P0001 T10061022
PAKN 170954Z 35014KT 9SM -SN BKN060 M01/M02 A2912 RMK AO2 SLP862 P0000 T10111022
PAKN 170854Z 36013KT 9SM -SN OVC050 M01/M02 A2912 RMK AO2 SLP861 SNB20 P0000 60000 T10111022 410061056 53000
PAKN 170754Z 36011KT 10SM BKN055 M01/M03 A2912 RMK AO2 SLP860 T10111028
PAKN 170654Z 33009KT 10SM FEW040 SCT048 OVC055 M01/M02 A2911 RMK AO2 SNB08E45 SLP860 P0000 T10111022
PAKN 170554Z 35010KT 9SM OVC055 M01/M02 A2912 RMK AO2 SLP861 SNB0459E18 P0000 60002 I6000 T10111022 11011 21017 53001
PAKN 170454Z COR 01009KT 10SM OVC060 M01/M02 A2912 RMK AO2 SLP861 P0001 I1000 T10111022
PAKN 170354Z 36011KT 10SM UP OVC039 M02/M02 A2911 RMK AO2 SLP859 P0001 I1000 T10171022
PAKN 170254Z 36009KT 10SM UP OVC050 M02/M02 A2911 RMK AO2 UPE00B19SNB00E17 SLP860 P0000 60000 T10171022 58009
PAKN 170228Z 36010KT 10SM UP SCT009 OVC060 M02/M02 A2912 RMK AO2 UPE00B19SNB00E17 P0000 T10171022
PAKN 170154Z 35009KT 10SM UP OVC008 M02/M02 A2913 RMK AO2 UPB52 SLP864 P0000 T10171022
PAKN 170054Z 36008KT 10SM OVC008 M01/M02 A2913 RMK AO2 SLP867 T10111022
PAKN 170013Z 36012KT 10SM OVC010 M02/M02 A2914 RMK AO2 CIG 007V013 T10171022
PAKN 162354Z 36012KT 10SM OVC008 M02/M02 A2914 RMK AO2 SLP870 60004 T10171022 11011 21022 56007
PAKN 162302Z 01011G18KT 10SM BKN008 OVC016 M02/M03 A2915 RMK AO2 T10171028
PAKN 162254Z 36011G18KT 10SM SCT008 BKN016 OVC047 M02/M03 A2915 RMK AO2 UPB31E36SNE31 SLP870 P0003 T10171028
PAKN 162251Z 36011KT 10SM SCT008 BKN016 OVC047 M02/M03 A2914 RMK AO2 UPB31E36SNE31 P0003
PAKN 162240Z 01010G20KT 10SM FEW007 SCT015 OVC047 M02/M03 A2915 RMK AO2 UPB31E36SNE31 P0003 T10171028
PAKN 162225Z 35012KT 10SM -SN BKN032 BKN042 OVC050 M02/M03 A2915 RMK AO2 P0003 T10221028
PAKN 162214Z 35016G20KT 1SM -SN BR BKN016 OVC042 M02/M03 A2915 RMK AO2 P0003 T10221028 RVRNO
PAKN 162201Z 35014KT 1/2SM SN FZFG VV014 M02/M03 A2916 RMK AO2 P0001 T10171028 RVRNO
PAKN 162154Z 35014G19KT 3/4SM -SN BR VV015 M02/M03 A2916 RMK AO2 SNB29 SLP877 P0001 T10171028 RVRNO
PAKN 162133Z 36014G22KT 3/4SM -SN BR OVC025 M01/M03 A2917 RMK AO2 SNB29 P0000 T10111033 RVRNO
PAKN 162131Z 36016G22KT 2SM -SN OVC029 M01/M04 A2917 RMK AO2 SNB29 P0000 T10111039
PAKN 162054Z 36010KT 10SM FEW050 OVC075 M01/M03 A2918 RMK AO2 SLP883 T10111033 56003
PAKN 161954Z 35011KT 10SM OVC060 M01/M03 A2919 RMK AO2 SLP885 T10111028
PAKN 161854Z COR 35008KT 10SM OVC060 OVC110 M01/M02 A2918 RMK AO2 SLP883 T10111022
PAKN 161754Z 33008KT 10SM BKN110 M02/M02 A2919 RMK AO2 SLP886 I6000 T10171022 11017 21056 56025
PAKN 161654Z 34005KT 10SM FEW120 M02/M03 A2922 RMK AO2 SLP894 T10221028 $
PAKN 161554Z AUTO 35011KT 10SM CLR M03/M04 A2923 RMK AO2 SLP898 T10281039 TSNO $
PAKN 161454Z AUTO 35009KT 10SM CLR M03/M03 A2927 RMK AO2 SLP911 I3000 T10331033 58026 TSNO $